sensor_id;sensor_type;location;lat;lon;timestamp;P1;durP1;ratioP1;P2;durP2;ratioP2
19836;SDS011;10079;55.740;37.662;2022-07-01T00:01:43;5.63;;;2.50;;
19836;SDS011;10079;55.740;37.662;2022-07-01T00:04:24;4.30;;;2.40;;
19836;SDS011;10079;55.740;37.662;2022-07-01T00:07:06;5.67;;;2.47;;
19836;SDS011;10079;55.740;37.662;2022-07-01T00:09:47;4.67;;;3.10;;
19836;SDS011;10079;55.740;37.662;2022-07-01T00:12:28;4.70;;;2.67;;
19836;SDS011;10079;55.740;37.662;2022-07-01T00:15:18;3.87;;;2.73;;
19836;SDS011;10079;55.740;37.662;2022-07-01T00:18:08;4.93;;;2.97;;
19836;SDS011;10079;55.740;37.662;2022-07-01T00:20:52;4.60;;;2.70;;
19836;SDS011;10079;55.740;37.662;2022-07-01T00:23:42;4.10;;;2.30;;
19836;SDS011;10079;55.740;37.662;2022-07-01T00:26:26;4.40;;;2.50;;
19836;SDS011;10079;55.740;37.662;2022-07-01T00:29:08;5.20;;;2.70;;
19836;SDS011;10079;55.740;37.662;2022-07-01T00:31:49;4.40;;;2.53;;
19836;SDS011;10079;55.740;37.662;2022-07-01T00:34:30;3.87;;;2.80;;
19836;SDS011;10079;55.740;37.662;2022-07-01T00:37:12;4.70;;;2.57;;
19836;SDS011;10079;55.740;37.662;2022-07-01T00:39:53;5.20;;;2.73;;
19836;SDS011;10079;55.740;37.662;2022-07-01T00:42:37;5.07;;;2.97;;
19836;SDS011;10079;55.740;37.662;2022-07-01T00:45:16;4.03;;;2.30;;
19836;SDS011;10079;55.740;37.662;2022-07-01T00:48:08;3.10;;;2.67;;
19836;SDS011;10079;55.740;37.662;2022-07-01T00:50:53;5.23;;;2.67;;
19836;SDS011;10079;55.740;37.662;2022-07-01T00:53:34;6.30;;;2.63;;
19836;SDS011;10079;55.740;37.662;2022-07-01T00:56:19;3.47;;;2.63;;
19836;SDS011;10079;55.740;37.662;2022-07-01T00:59:03;4.80;;;2.47;;
19836;SDS011;10079;55.740;37.662;2022-07-01T01:01:44;5.60;;;3.13;;
19836;SDS011;10079;55.740;37.662;2022-07-01T01:04:25;5.53;;;3.30;;
19836;SDS011;10079;55.740;37.662;2022-07-01T01:07:06;3.63;;;2.90;;
19836;SDS011;10079;55.740;37.662;2022-07-01T01:09:48;4.33;;;2.43;;
19836;SDS011;10079;55.740;37.662;2022-07-01T01:12:29;3.63;;;2.70;;
19836;SDS011;10079;55.740;37.662;2022-07-01T01:15:18;3.87;;;2.60;;
19836;SDS011;10079;55.740;37.662;2022-07-01T01:17:59;5.67;;;2.80;;
19836;SDS011;10079;55.740;37.662;2022-07-01T01:20:40;5.83;;;3.00;;
19836;SDS011;10079;55.740;37.662;2022-07-01T01:23:24;4.07;;;3.00;;
19836;SDS011;10079;55.740;37.662;2022-07-01T01:28:59;6.63;;;3.30;;
19836;SDS011;10079;55.740;37.662;2022-07-01T01:31:40;5.03;;;3.17;;
19836;SDS011;10079;55.740;37.662;2022-07-01T01:34:22;4.37;;;3.00;;
19836;SDS011;10079;55.740;37.662;2022-07-01T01:37:04;4.63;;;2.77;;
19836;SDS011;10079;55.740;37.662;2022-07-01T01:39:44;5.93;;;2.80;;
19836;SDS011;10079;55.740;37.662;2022-07-01T01:42:25;3.20;;;2.70;;
19836;SDS011;10079;55.740;37.662;2022-07-01T01:45:07;5.70;;;2.70;;
19836;SDS011;10079;55.740;37.662;2022-07-01T01:48:01;3.93;;;2.97;;
19836;SDS011;10079;55.740;37.662;2022-07-01T02:11:47;5.67;;;2.80;;
19836;SDS011;10079;55.740;37.662;2022-07-01T02:14:28;3.70;;;2.70;;
19836;SDS011;10079;55.740;37.662;2022-07-01T02:17:21;6.50;;;2.93;;
19836;SDS011;10079;55.740;37.662;2022-07-01T02:20:13;4.73;;;2.60;;
19836;SDS011;10079;55.740;37.662;2022-07-01T02:23:06;3.90;;;2.30;;
19836;SDS011;10079;55.740;37.662;2022-07-01T02:25:50;3.37;;;2.53;;
19836;SDS011;10079;55.740;37.662;2022-07-01T02:28:32;2.90;;;2.53;;
19836;SDS011;10079;55.740;37.662;2022-07-01T02:31:16;4.60;;;3.27;;
19836;SDS011;10079;55.740;37.662;2022-07-01T02:33:57;3.83;;;2.77;;
19836;SDS011;10079;55.740;37.662;2022-07-01T02:36:38;4.43;;;2.47;;
19836;SDS011;10079;55.740;37.662;2022-07-01T02:39:19;4.93;;;2.23;;
19836;SDS011;10079;55.740;37.662;2022-07-01T02:42:04;3.47;;;2.50;;
19836;SDS011;10079;55.740;37.662;2022-07-01T02:44:48;4.67;;;2.37;;
19836;SDS011;10079;55.740;37.662;2022-07-01T02:47:38;3.40;;;2.30;;
19836;SDS011;10079;55.740;37.662;2022-07-01T02:50:21;4.00;;;2.20;;
19836;SDS011;10079;55.740;37.662;2022-07-01T02:53:03;3.60;;;2.00;;
19836;SDS011;10079;55.740;37.662;2022-07-01T02:55:55;3.90;;;2.17;;
19836;SDS011;10079;55.740;37.662;2022-07-01T02:58:37;4.37;;;1.90;;
19836;SDS011;10079;55.740;37.662;2022-07-01T03:01:18;2.57;;;1.73;;
19836;SDS011;10079;55.740;37.662;2022-07-01T03:03:59;2.73;;;2.00;;
19836;SDS011;10079;55.740;37.662;2022-07-01T03:06:43;3.70;;;2.37;;
19836;SDS011;10079;55.740;37.662;2022-07-01T03:09:27;2.53;;;1.77;;
19836;SDS011;10079;55.740;37.662;2022-07-01T03:12:09;4.33;;;2.10;;
19836;SDS011;10079;55.740;37.662;2022-07-01T03:14:55;3.17;;;2.00;;
19836;SDS011;10079;55.740;37.662;2022-07-01T03:17:36;3.27;;;2.00;;
19836;SDS011;10079;55.740;37.662;2022-07-01T03:20:20;4.23;;;2.00;;
19836;SDS011;10079;55.740;37.662;2022-07-01T03:23:04;5.30;;;1.73;;
19836;SDS011;10079;55.740;37.662;2022-07-01T03:25:45;2.67;;;1.90;;
19836;SDS011;10079;55.740;37.662;2022-07-01T03:28:26;2.47;;;1.60;;
19836;SDS011;10079;55.740;37.662;2022-07-01T03:31:11;3.65;;;1.80;;
19836;SDS011;10079;55.740;37.662;2022-07-01T03:33:52;6.87;;;2.00;;
19836;SDS011;10079;55.740;37.662;2022-07-01T03:36:36;2.90;;;2.10;;
19836;SDS011;10079;55.740;37.662;2022-07-01T03:39:20;2.03;;;1.70;;
19836;SDS011;10079;55.740;37.662;2022-07-01T03:42:04;5.15;;;1.80;;
19836;SDS011;10079;55.740;37.662;2022-07-01T03:44:54;2.40;;;2.00;;
19836;SDS011;10079;55.740;37.662;2022-07-01T03:47:48;4.43;;;1.83;;
19836;SDS011;10079;55.740;37.662;2022-07-01T03:50:40;3.97;;;1.87;;
19836;SDS011;10079;55.740;37.662;2022-07-01T03:53:21;2.40;;;2.00;;
19836;SDS011;10079;55.740;37.662;2022-07-01T03:56:03;3.83;;;1.90;;
19836;SDS011;10079;55.740;37.662;2022-07-01T03:58:44;1.83;;;1.50;;
19836;SDS011;10079;55.740;37.662;2022-07-01T04:01:25;3.55;;;1.70;;
19836;SDS011;10079;55.740;37.662;2022-07-01T04:04:09;3.50;;;2.22;;
19836;SDS011;10079;55.740;37.662;2022-07-01T04:06:51;3.12;;;1.95;;
19836;SDS011;10079;55.740;37.662;2022-07-01T04:09:32;3.08;;;1.75;;
19836;SDS011;10079;55.740;37.662;2022-07-01T04:12:13;3.65;;;2.08;;
19836;SDS011;10079;55.740;37.662;2022-07-01T04:14:54;2.40;;;1.70;;
19836;SDS011;10079;55.740;37.662;2022-07-01T04:17:35;3.65;;;1.70;;
19836;SDS011;10079;55.740;37.662;2022-07-01T04:20:17;2.42;;;1.60;;
19836;SDS011;10079;55.740;37.662;2022-07-01T04:22:58;2.10;;;1.73;;
19836;SDS011;10079;55.740;37.662;2022-07-01T04:25:39;1.80;;;1.60;;
19836;SDS011;10079;55.740;37.662;2022-07-01T04:28:32;1.50;;;1.40;;
19836;SDS011;10079;55.740;37.662;2022-07-01T04:31:13;4.15;;;1.48;;
19836;SDS011;10079;55.740;37.662;2022-07-01T04:33:54;3.80;;;1.30;;
19836;SDS011;10079;55.740;37.662;2022-07-01T04:36:36;2.08;;;1.42;;
19836;SDS011;10079;55.740;37.662;2022-07-01T04:39:17;1.60;;;1.50;;
19836;SDS011;10079;55.740;37.662;2022-07-01T04:41:58;2.20;;;1.42;;
19836;SDS011;10079;55.740;37.662;2022-07-01T04:44:39;2.95;;;1.40;;
19836;SDS011;10079;55.740;37.662;2022-07-01T04:47:20;1.42;;;1.33;;
19836;SDS011;10079;55.740;37.662;2022-07-01T04:50:02;2.00;;;1.17;;
19836;SDS011;10079;55.740;37.662;2022-07-01T04:52:43;3.53;;;1.52;;
19836;SDS011;10079;55.740;37.662;2022-07-01T05:06:20;1.30;;;1.20;;
19836;SDS011;10079;55.740;37.662;2022-07-01T05:09:01;2.35;;;1.40;;
19836;SDS011;10079;55.740;37.662;2022-07-01T05:22:28;2.78;;;1.30;;
19836;SDS011;10079;55.740;37.662;2022-07-01T05:25:12;1.30;;;1.20;;
19836;SDS011;10079;55.740;37.662;2022-07-01T05:27:53;1.50;;;1.20;;
19836;SDS011;10079;55.740;37.662;2022-07-01T05:30:38;1.35;;;1.10;;
19836;SDS011;10079;55.740;37.662;2022-07-01T05:33:22;1.60;;;1.33;;
19836;SDS011;10079;55.740;37.662;2022-07-01T05:36:03;1.65;;;1.40;;
19836;SDS011;10079;55.740;37.662;2022-07-01T05:38:48;2.67;;;1.20;;
19836;SDS011;10079;55.740;37.662;2022-07-01T05:41:32;2.00;;;1.05;;
19836;SDS011;10079;55.740;37.662;2022-07-01T05:44:16;1.30;;;1.20;;
19836;SDS011;10079;55.740;37.662;2022-07-01T05:47:00;1.37;;;1.27;;
19836;SDS011;10079;55.740;37.662;2022-07-01T05:49:45;3.12;;;1.30;;
19836;SDS011;10079;55.740;37.662;2022-07-01T05:52:26;5.00;;;1.45;;
19836;SDS011;10079;55.740;37.662;2022-07-01T05:55:16;2.42;;;1.30;;
19836;SDS011;10079;55.740;37.662;2022-07-01T05:58:00;3.35;;;1.20;;
19836;SDS011;10079;55.740;37.662;2022-07-01T06:00:44;5.07;;;1.45;;
19836;SDS011;10079;55.740;37.662;2022-07-01T06:03:28;1.55;;;1.02;;
19836;SDS011;10079;55.740;37.662;2022-07-01T06:06:09;1.40;;;1.30;;
19836;SDS011;10079;55.740;37.662;2022-07-01T06:08:54;2.95;;;1.30;;
19836;SDS011;10079;55.740;37.662;2022-07-01T06:11:35;2.75;;;1.30;;
19836;SDS011;10079;55.740;37.662;2022-07-01T06:14:28;5.72;;;1.33;;
19836;SDS011;10079;55.740;37.662;2022-07-01T06:17:12;11.45;;;2.03;;
19836;SDS011;10079;55.740;37.662;2022-07-01T06:20:07;2.05;;;1.20;;
19836;SDS011;10079;55.740;37.662;2022-07-01T06:22:52;2.67;;;1.00;;
19836;SDS011;10079;55.740;37.662;2022-07-01T06:25:33;3.37;;;1.10;;
19836;SDS011;10079;55.740;37.662;2022-07-01T06:28:17;4.32;;;1.27;;
19836;SDS011;10079;55.740;37.662;2022-07-01T06:30:58;2.03;;;1.20;;
19836;SDS011;10079;55.740;37.662;2022-07-01T06:33:42;2.53;;;1.25;;
19836;SDS011;10079;55.740;37.662;2022-07-01T06:36:24;1.33;;;1.15;;
19836;SDS011;10079;55.740;37.662;2022-07-01T06:39:05;1.35;;;1.25;;
19836;SDS011;10079;55.740;37.662;2022-07-01T06:41:46;4.80;;;1.30;;
19836;SDS011;10079;55.740;37.662;2022-07-01T06:44:30;2.87;;;1.27;;
19836;SDS011;10079;55.740;37.662;2022-07-01T06:47:11;1.20;;;1.10;;
19836;SDS011;10079;55.740;37.662;2022-07-01T06:49:53;2.60;;;1.23;;
19836;SDS011;10079;55.740;37.662;2022-07-01T06:52:37;3.33;;;1.33;;
19836;SDS011;10079;55.740;37.662;2022-07-01T06:55:30;1.73;;;1.02;;
19836;SDS011;10079;55.740;37.662;2022-07-01T06:58:22;4.35;;;1.30;;
19836;SDS011;10079;55.740;37.662;2022-07-01T07:01:04;2.55;;;1.30;;
19836;SDS011;10079;55.740;37.662;2022-07-01T07:03:45;3.40;;;1.05;;
19836;SDS011;10079;55.740;37.662;2022-07-01T07:06:26;2.00;;;0.93;;
19836;SDS011;10079;55.740;37.662;2022-07-01T07:09:07;2.87;;;1.48;;
19836;SDS011;10079;55.740;37.662;2022-07-01T07:11:48;3.28;;;1.27;;
19836;SDS011;10079;55.740;37.662;2022-07-01T07:14:30;4.87;;;1.50;;
19836;SDS011;10079;55.740;37.662;2022-07-01T07:17:11;2.95;;;1.12;;
19836;SDS011;10079;55.740;37.662;2022-07-01T07:19:55;4.40;;;1.23;;
19836;SDS011;10079;55.740;37.662;2022-07-01T07:22:36;1.42;;;0.90;;
19836;SDS011;10079;55.740;37.662;2022-07-01T07:25:17;1.65;;;1.00;;
19836;SDS011;10079;55.740;37.662;2022-07-01T07:27:59;1.65;;;0.90;;
19836;SDS011;10079;55.740;37.662;2022-07-01T07:30:43;1.87;;;1.27;;
19836;SDS011;10079;55.740;37.662;2022-07-01T07:33:24;1.83;;;1.00;;
19836;SDS011;10079;55.740;37.662;2022-07-01T07:36:05;1.15;;;1.00;;
19836;SDS011;10079;55.740;37.662;2022-07-01T07:38:46;2.17;;;1.00;;
19836;SDS011;10079;55.740;37.662;2022-07-01T07:41:28;1.70;;;0.90;;
19836;SDS011;10079;55.740;37.662;2022-07-01T07:44:09;2.62;;;1.12;;
19836;SDS011;10079;55.740;37.662;2022-07-01T07:46:50;3.10;;;1.10;;
19836;SDS011;10079;55.740;37.662;2022-07-01T07:49:31;1.83;;;1.50;;
19836;SDS011;10079;55.740;37.662;2022-07-01T07:52:12;4.03;;;1.45;;
19836;SDS011;10079;55.740;37.662;2022-07-01T07:54:54;2.05;;;1.10;;
19836;SDS011;10079;55.740;37.662;2022-07-01T07:57:35;2.75;;;1.05;;
19836;SDS011;10079;55.740;37.662;2022-07-01T08:00:16;3.05;;;1.20;;
19836;SDS011;10079;55.740;37.662;2022-07-01T08:02:57;3.40;;;1.40;;
19836;SDS011;10079;55.740;37.662;2022-07-01T08:05:39;3.20;;;1.05;;
19836;SDS011;10079;55.740;37.662;2022-07-01T08:19:02;3.22;;;1.37;;
19836;SDS011;10079;55.740;37.662;2022-07-01T08:32:33;1.87;;;1.30;;
19836;SDS011;10079;55.740;37.662;2022-07-01T08:35:17;1.90;;;1.10;;
19836;SDS011;10079;55.740;37.662;2022-07-01T08:38:02;1.30;;;1.20;;
19836;SDS011;10079;55.740;37.662;2022-07-01T08:40:46;2.08;;;1.50;;
19836;SDS011;10079;55.740;37.662;2022-07-01T08:43:27;2.50;;;1.30;;
19836;SDS011;10079;55.740;37.662;2022-07-01T08:46:21;1.42;;;0.95;;
19836;SDS011;10079;55.740;37.662;2022-07-01T08:49:04;2.37;;;1.27;;
19836;SDS011;10079;55.740;37.662;2022-07-01T08:51:45;2.83;;;1.02;;
19836;SDS011;10079;55.740;37.662;2022-07-01T08:54:26;1.75;;;1.20;;
19836;SDS011;10079;55.740;37.662;2022-07-01T08:57:10;2.80;;;1.15;;
19836;SDS011;10079;55.740;37.662;2022-07-01T09:00:00;2.85;;;1.20;;
19836;SDS011;10079;55.740;37.662;2022-07-01T09:05:47;3.33;;;1.10;;
19836;SDS011;10079;55.740;37.662;2022-07-01T09:08:33;1.52;;;1.20;;
19836;SDS011;10079;55.740;37.662;2022-07-01T09:11:15;1.67;;;0.98;;
19836;SDS011;10079;55.740;37.662;2022-07-01T09:16:54;1.37;;;1.05;;
19836;SDS011;10079;55.740;37.662;2022-07-01T09:19:36;1.60;;;1.10;;
19836;SDS011;10079;55.740;37.662;2022-07-01T09:22:16;4.62;;;1.20;;
19836;SDS011;10079;55.740;37.662;2022-07-01T09:24:57;5.80;;;1.60;;
19836;SDS011;10079;55.740;37.662;2022-07-01T09:27:38;2.65;;;1.10;;
19836;SDS011;10079;55.740;37.662;2022-07-01T09:30:26;6.00;;;1.48;;
19836;SDS011;10079;55.740;37.662;2022-07-01T09:33:14;1.67;;;1.10;;
19836;SDS011;10079;55.740;37.662;2022-07-01T09:36:04;1.40;;;1.20;;
19836;SDS011;10079;55.740;37.662;2022-07-01T09:38:47;5.12;;;1.52;;
19836;SDS011;10079;55.740;37.662;2022-07-01T09:41:27;4.07;;;1.52;;
19836;SDS011;10079;55.740;37.662;2022-07-01T09:44:08;2.85;;;1.40;;
19836;SDS011;10079;55.740;37.662;2022-07-01T09:49:03;2.87;;;1.30;;
19836;SDS011;10079;55.740;37.662;2022-07-01T09:51:44;1.83;;;1.30;;
19836;SDS011;10079;55.740;37.662;2022-07-01T09:54:37;2.40;;;1.02;;
19836;SDS011;10079;55.740;37.662;2022-07-01T09:57:18;2.40;;;1.77;;
19836;SDS011;10079;55.740;37.662;2022-07-01T10:00:04;2.58;;;1.20;;
19836;SDS011;10079;55.740;37.662;2022-07-01T10:02:46;4.15;;;1.65;;
19836;SDS011;10079;55.740;37.662;2022-07-01T10:05:30;3.95;;;1.40;;
19836;SDS011;10079;55.740;37.662;2022-07-01T10:08:20;2.50;;;1.35;;
19836;SDS011;10079;55.740;37.662;2022-07-01T10:13:54;1.85;;;1.20;;
19836;SDS011;10079;55.740;37.662;2022-07-01T10:16:36;1.58;;;1.10;;
19836;SDS011;10079;55.740;37.662;2022-07-01T10:19:28;2.28;;;1.02;;
19836;SDS011;10079;55.740;37.662;2022-07-01T10:22:30;2.75;;;1.08;;
19836;SDS011;10079;55.740;37.662;2022-07-01T10:30:58;3.37;;;1.10;;
19836;SDS011;10079;55.740;37.662;2022-07-01T10:33:48;5.07;;;1.27;;
19836;SDS011;10079;55.740;37.662;2022-07-01T10:36:31;3.45;;;1.33;;
19836;SDS011;10079;55.740;37.662;2022-07-01T10:39:13;2.03;;;1.20;;
19836;SDS011;10079;55.740;37.662;2022-07-01T10:41:57;2.17;;;1.00;;
19836;SDS011;10079;55.740;37.662;2022-07-01T10:44:38;2.03;;;1.30;;
19836;SDS011;10079;55.740;37.662;2022-07-01T10:47:19;3.00;;;1.27;;
19836;SDS011;10079;55.740;37.662;2022-07-01T10:50:03;0.90;;;0.90;;
19836;SDS011;10079;55.740;37.662;2022-07-01T10:53:02;1.23;;;1.10;;
19836;SDS011;10079;55.740;37.662;2022-07-01T10:55:45;4.30;;;1.27;;
19836;SDS011;10079;55.740;37.662;2022-07-01T11:01:17;6.03;;;1.90;;
19836;SDS011;10079;55.740;37.662;2022-07-01T11:04:10;4.37;;;1.90;;
19836;SDS011;10079;55.740;37.662;2022-07-01T11:06:52;4.33;;;1.20;;
19836;SDS011;10079;55.740;37.662;2022-07-01T11:09:32;2.37;;;1.33;;
19836;SDS011;10079;55.740;37.662;2022-07-01T11:12:14;2.07;;;1.37;;
19836;SDS011;10079;55.740;37.662;2022-07-01T11:14:57;3.90;;;1.60;;
19836;SDS011;10079;55.740;37.662;2022-07-01T11:17:42;5.07;;;2.00;;
19836;SDS011;10079;55.740;37.662;2022-07-01T11:31:03;3.90;;;1.40;;
19836;SDS011;10079;55.740;37.662;2022-07-01T11:44:36;8.40;;;2.42;;
19836;SDS011;10079;55.740;37.662;2022-07-01T11:47:22;2.97;;;1.30;;
19836;SDS011;10079;55.740;37.662;2022-07-01T11:50:03;2.30;;;1.50;;
19836;SDS011;10079;55.740;37.662;2022-07-01T11:52:45;3.65;;;1.65;;
19836;SDS011;10079;55.740;37.662;2022-07-01T11:55:44;2.75;;;1.30;;
19836;SDS011;10079;55.740;37.662;2022-07-01T11:58:24;4.27;;;1.70;;
19836;SDS011;10079;55.740;37.662;2022-07-01T12:01:08;2.83;;;1.20;;
19836;SDS011;10079;55.740;37.662;2022-07-01T12:03:53;3.03;;;1.47;;
19836;SDS011;10079;55.740;37.662;2022-07-01T12:06:46;5.40;;;1.43;;
19836;SDS011;10079;55.740;37.662;2022-07-01T12:09:30;4.63;;;1.53;;
19836;SDS011;10079;55.740;37.662;2022-07-01T12:12:23;3.73;;;1.60;;
19836;SDS011;10079;55.740;37.662;2022-07-01T12:15:05;2.30;;;1.30;;
19836;SDS011;10079;55.740;37.662;2022-07-01T12:18:06;2.53;;;1.50;;
19836;SDS011;10079;55.740;37.662;2022-07-01T12:20:58;2.50;;;1.30;;
19836;SDS011;10079;55.740;37.662;2022-07-01T12:23:40;2.37;;;1.60;;
19836;SDS011;10079;55.740;37.662;2022-07-01T12:26:29;6.53;;;1.90;;
19836;SDS011;10079;55.740;37.662;2022-07-01T12:29:15;3.23;;;1.40;;
19836;SDS011;10079;55.740;37.662;2022-07-01T12:31:59;3.20;;;2.07;;
19836;SDS011;10079;55.740;37.662;2022-07-01T12:34:56;8.53;;;1.87;;
19836;SDS011;10079;55.740;37.662;2022-07-01T12:37:56;4.63;;;1.80;;
19836;SDS011;10079;55.740;37.662;2022-07-01T12:40:38;4.03;;;1.50;;
19836;SDS011;10079;55.740;37.662;2022-07-01T12:43:22;2.70;;;1.60;;
19836;SDS011;10079;55.740;37.662;2022-07-01T12:46:06;5.30;;;1.70;;
19836;SDS011;10079;55.740;37.662;2022-07-01T12:48:48;2.47;;;1.40;;
19836;SDS011;10079;55.740;37.662;2022-07-01T12:51:30;2.80;;;1.70;;
19836;SDS011;10079;55.740;37.662;2022-07-01T12:57:08;4.77;;;1.67;;
19836;SDS011;10079;55.740;37.662;2022-07-01T12:59:50;2.43;;;1.33;;
19836;SDS011;10079;55.740;37.662;2022-07-01T13:02:34;5.47;;;1.87;;
19836;SDS011;10079;55.740;37.662;2022-07-01T13:05:28;2.50;;;1.63;;
19836;SDS011;10079;55.740;37.662;2022-07-01T13:08:08;2.90;;;1.63;;
19836;SDS011;10079;55.740;37.662;2022-07-01T13:10:49;4.57;;;1.97;;
19836;SDS011;10079;55.740;37.662;2022-07-01T13:13:34;4.53;;;1.73;;
19836;SDS011;10079;55.740;37.662;2022-07-01T13:16:15;3.90;;;1.60;;
19836;SDS011;10079;55.740;37.662;2022-07-01T13:18:56;5.40;;;1.80;;
19836;SDS011;10079;55.740;37.662;2022-07-01T13:21:37;4.07;;;1.93;;
19836;SDS011;10079;55.740;37.662;2022-07-01T13:24:19;2.27;;;1.70;;
19836;SDS011;10079;55.740;37.662;2022-07-01T13:27:00;2.83;;;1.90;;
19836;SDS011;10079;55.740;37.662;2022-07-01T13:29:41;4.07;;;1.53;;
19836;SDS011;10079;55.740;37.662;2022-07-01T13:32:25;1.53;;;1.40;;
19836;SDS011;10079;55.740;37.662;2022-07-01T13:35:07;4.87;;;1.43;;
19836;SDS011;10079;55.740;37.662;2022-07-01T13:37:50;3.63;;;1.70;;
19836;SDS011;10079;55.740;37.662;2022-07-01T13:40:34;4.50;;;1.73;;
19836;SDS011;10079;55.740;37.662;2022-07-01T13:43:15;2.83;;;1.60;;
19836;SDS011;10079;55.740;37.662;2022-07-01T13:45:56;4.70;;;1.70;;
19836;SDS011;10079;55.740;37.662;2022-07-01T13:48:38;4.60;;;1.70;;
19836;SDS011;10079;55.740;37.662;2022-07-01T13:51:19;6.63;;;1.80;;
19836;SDS011;10079;55.740;37.662;2022-07-01T13:54:00;8.40;;;2.00;;
19836;SDS011;10079;55.740;37.662;2022-07-01T13:56:41;3.07;;;1.70;;
19836;SDS011;10079;55.740;37.662;2022-07-01T13:59:22;1.77;;;1.50;;
19836;SDS011;10079;55.740;37.662;2022-07-01T14:02:04;2.10;;;1.50;;
19836;SDS011;10079;55.740;37.662;2022-07-01T14:04:46;5.97;;;1.90;;
19836;SDS011;10079;55.740;37.662;2022-07-01T14:07:26;2.97;;;1.83;;
19836;SDS011;10079;55.740;37.662;2022-07-01T14:10:08;2.47;;;1.50;;
19836;SDS011;10079;55.740;37.662;2022-07-01T14:12:52;4.97;;;2.20;;
19836;SDS011;10079;55.740;37.662;2022-07-01T14:15:42;3.67;;;1.70;;
19836;SDS011;10079;55.740;37.662;2022-07-01T14:18:32;3.30;;;1.60;;
19836;SDS011;10079;55.740;37.662;2022-07-01T14:21:17;3.27;;;1.83;;
19836;SDS011;10079;55.740;37.662;2022-07-01T14:24:06;4.13;;;1.57;;
19836;SDS011;10079;55.740;37.662;2022-07-01T14:26:50;2.27;;;1.40;;
19836;SDS011;10079;55.740;37.662;2022-07-01T14:40:13;4.23;;;2.07;;
19836;SDS011;10079;55.740;37.662;2022-07-01T14:43:03;2.80;;;1.83;;
19836;SDS011;10079;55.740;37.662;2022-07-01T14:45:55;2.53;;;1.60;;
19836;SDS011;10079;55.740;37.662;2022-07-01T14:48:39;2.53;;;1.77;;
19836;SDS011;10079;55.740;37.662;2022-07-01T14:51:24;5.67;;;2.07;;
19836;SDS011;10079;55.740;37.662;2022-07-01T14:54:16;3.67;;;1.80;;
19836;SDS011;10079;55.740;37.662;2022-07-01T14:57:01;1.90;;;1.47;;
19836;SDS011;10079;55.740;37.662;2022-07-01T14:59:45;4.67;;;1.67;;
19836;SDS011;10079;55.740;37.662;2022-07-01T15:02:27;5.17;;;1.70;;
19836;SDS011;10079;55.740;37.662;2022-07-01T15:05:08;5.80;;;1.70;;
19836;SDS011;10079;55.740;37.662;2022-07-01T15:08:01;4.57;;;1.60;;
19836;SDS011;10079;55.740;37.662;2022-07-01T15:10:42;2.03;;;1.80;;
19836;SDS011;10079;55.740;37.662;2022-07-01T15:13:23;2.70;;;1.47;;
19836;SDS011;10079;55.740;37.662;2022-07-01T15:16:07;4.73;;;1.70;;
19836;SDS011;10079;55.740;37.662;2022-07-01T15:19:01;2.80;;;1.50;;
19836;SDS011;10079;55.740;37.662;2022-07-01T15:21:43;4.67;;;1.60;;
19836;SDS011;10079;55.740;37.662;2022-07-01T15:24:24;2.93;;;1.50;;
19836;SDS011;10079;55.740;37.662;2022-07-01T15:27:05;2.63;;;1.57;;
19836;SDS011;10079;55.740;37.662;2022-07-01T15:29:58;4.73;;;1.70;;
19836;SDS011;10079;55.740;37.662;2022-07-01T15:32:51;3.80;;;2.00;;
19836;SDS011;10079;55.740;37.662;2022-07-01T15:35:35;4.57;;;1.90;;
19836;SDS011;10079;55.740;37.662;2022-07-01T15:38:19;2.37;;;1.50;;
19836;SDS011;10079;55.740;37.662;2022-07-01T15:41:03;4.90;;;1.70;;
19836;SDS011;10079;55.740;37.662;2022-07-01T15:43:45;3.03;;;1.63;;
19836;SDS011;10079;55.740;37.662;2022-07-01T15:46:33;3.30;;;2.07;;
19836;SDS011;10079;55.740;37.662;2022-07-01T15:49:32;3.87;;;1.80;;
19836;SDS011;10079;55.740;37.662;2022-07-01T15:52:14;4.70;;;1.70;;
19836;SDS011;10079;55.740;37.662;2022-07-01T15:54:58;4.20;;;1.73;;
19836;SDS011;10079;55.740;37.662;2022-07-01T15:57:39;3.10;;;2.07;;
19836;SDS011;10079;55.740;37.662;2022-07-01T16:00:21;3.23;;;1.93;;
19836;SDS011;10079;55.740;37.662;2022-07-01T16:03:02;4.30;;;2.17;;
19836;SDS011;10079;55.740;37.662;2022-07-01T16:05:46;4.60;;;1.93;;
19836;SDS011;10079;55.740;37.662;2022-07-01T16:08:36;3.50;;;2.00;;
19836;SDS011;10079;55.740;37.662;2022-07-01T16:11:17;5.57;;;2.20;;
19836;SDS011;10079;55.740;37.662;2022-07-01T16:13:58;4.97;;;1.90;;
19836;SDS011;10079;55.740;37.662;2022-07-01T16:16:40;2.90;;;1.80;;
19836;SDS011;10079;55.740;37.662;2022-07-01T16:19:24;5.13;;;1.87;;
19836;SDS011;10079;55.740;37.662;2022-07-01T16:22:08;4.50;;;2.00;;
19836;SDS011;10079;55.740;37.662;2022-07-01T16:24:53;3.60;;;1.90;;
19836;SDS011;10079;55.740;37.662;2022-07-01T16:27:34;6.47;;;2.00;;
19836;SDS011;10079;55.740;37.662;2022-07-01T16:30:15;5.73;;;1.80;;
19836;SDS011;10079;55.740;37.662;2022-07-01T16:32:56;5.63;;;1.90;;
19836;SDS011;10079;55.740;37.662;2022-07-01T16:35:41;2.80;;;1.83;;
19836;SDS011;10079;55.740;37.662;2022-07-01T16:38:55;3.20;;;2.10;;
19836;SDS011;10079;55.740;37.662;2022-07-01T16:41:47;2.43;;;1.73;;
19836;SDS011;10079;55.740;37.662;2022-07-01T16:47:39;3.07;;;2.00;;
19836;SDS011;10079;55.740;37.662;2022-07-01T16:50:20;2.77;;;1.97;;
19836;SDS011;10079;55.740;37.662;2022-07-01T16:53:13;4.67;;;2.20;;
19836;SDS011;10079;55.740;37.662;2022-07-01T16:55:54;3.50;;;2.20;;
19836;SDS011;10079;55.740;37.662;2022-07-01T16:58:35;4.17;;;2.17;;
19836;SDS011;10079;55.740;37.662;2022-07-01T17:01:16;4.63;;;1.90;;
19836;SDS011;10079;55.740;37.662;2022-07-01T17:03:58;3.00;;;2.20;;
19836;SDS011;10079;55.740;37.662;2022-07-01T17:06:41;4.37;;;2.10;;
19836;SDS011;10079;55.740;37.662;2022-07-01T17:09:21;4.67;;;2.50;;
19836;SDS011;10079;55.740;37.662;2022-07-01T17:12:12;3.20;;;2.10;;
19836;SDS011;10079;55.740;37.662;2022-07-01T17:25:36;4.80;;;2.33;;
19836;SDS011;10079;55.740;37.662;2022-07-01T17:31:25;3.77;;;2.30;;
19836;SDS011;10079;55.740;37.662;2022-07-01T17:34:10;2.97;;;2.00;;
19836;SDS011;10079;55.740;37.662;2022-07-01T17:36:52;3.77;;;2.10;;
19836;SDS011;10079;55.740;37.662;2022-07-01T17:39:36;3.40;;;2.00;;
19836;SDS011;10079;55.740;37.662;2022-07-01T17:42:30;3.73;;;2.30;;
19836;SDS011;10079;55.740;37.662;2022-07-01T17:55:47;4.57;;;2.23;;
19836;SDS011;10079;55.740;37.662;2022-07-01T17:58:41;5.63;;;2.73;;
19836;SDS011;10079;55.740;37.662;2022-07-01T18:01:34;6.00;;;2.53;;
19836;SDS011;10079;55.740;37.662;2022-07-01T18:04:15;4.40;;;2.20;;
19836;SDS011;10079;55.740;37.662;2022-07-01T18:06:57;5.87;;;2.47;;
19836;SDS011;10079;55.740;37.662;2022-07-01T18:09:38;5.50;;;2.37;;
19836;SDS011;10079;55.740;37.662;2022-07-01T18:12:28;4.87;;;2.60;;
19836;SDS011;10079;55.740;37.662;2022-07-01T18:15:18;5.00;;;2.87;;
19836;SDS011;10079;55.740;37.662;2022-07-01T18:18:02;5.43;;;2.47;;
19836;SDS011;10079;55.740;37.662;2022-07-01T18:20:49;5.00;;;2.90;;
19836;SDS011;10079;55.740;37.662;2022-07-01T18:23:33;6.70;;;3.00;;
19836;SDS011;10079;55.740;37.662;2022-07-01T18:26:17;4.87;;;2.43;;
19836;SDS011;10079;55.740;37.662;2022-07-01T18:28:58;4.47;;;2.50;;
19836;SDS011;10079;55.740;37.662;2022-07-01T18:31:50;5.13;;;2.77;;
19836;SDS011;10079;55.740;37.662;2022-07-01T18:34:42;4.83;;;2.97;;
19836;SDS011;10079;55.740;37.662;2022-07-01T18:37:37;4.73;;;2.53;;
19836;SDS011;10079;55.740;37.662;2022-07-01T18:40:30;4.47;;;2.77;;
19836;SDS011;10079;55.740;37.662;2022-07-01T18:43:15;6.50;;;3.00;;